sensor_id;sensor_type;location;lat;lon;timestamp;pressure;altitude;pressure_sealevel;temperature;humidity
58991;BME280;44781;53.444;14.476;2023-03-03T00:02:00;102256.27;;;0.83;76.41
58991;BME280;44781;53.444;14.476;2023-03-03T00:04:27;102255.73;;;0.85;76.45
58991;BME280;44781;53.444;14.476;2023-03-03T00:06:55;102248.91;;;0.88;76.58
58991;BME280;44781;53.444;14.476;2023-03-03T00:09:23;102245.72;;;0.92;76.69
58991;BME280;44781;53.444;14.476;2023-03-03T00:11:54;102242.54;;;0.96;76.69
58991;BME280;44781;53.444;14.476;2023-03-03T00:14:30;102242.17;;;0.98;76.51
58991;BME280;44781;53.444;14.476;2023-03-03T00:17:15;102236.00;;;0.90;76.43
58991;BME280;44781;53.444;14.476;2023-03-03T00:19:46;102247.20;;;0.99;76.57
58991;BME280;44781;53.444;14.476;2023-03-03T00:22:28;102248.29;;;0.96;76.56
58991;BME280;44781;53.444;14.476;2023-03-03T00:25:28;102247.28;;;0.93;76.31
58991;BME280;44781;53.444;14.476;2023-03-03T00:28:07;102245.75;;;0.90;76.32
58991;BME280;44781;53.444;14.476;2023-03-03T00:30:42;102255.84;;;0.90;76.51
58991;BME280;44781;53.444;14.476;2023-03-03T00:38:49;102244.02;;;0.74;76.58
58991;BME280;44781;53.444;14.476;2023-03-03T00:41:25;102237.10;;;0.71;76.71
58991;BME280;44781;53.444;14.476;2023-03-03T00:43:53;102242.66;;;0.71;76.84
58991;BME280;44781;53.444;14.476;2023-03-03T00:46:22;102246.45;;;0.73;76.79
58991;BME280;44781;53.444;14.476;2023-03-03T00:48:50;102241.23;;;0.74;76.83
58991;BME280;44781;53.444;14.476;2023-03-03T00:51:30;102241.56;;;0.76;76.98
58991;BME280;44781;53.444;14.476;2023-03-03T00:53:57;102246.05;;;0.80;77.13
58991;BME280;44781;53.444;14.476;2023-03-03T00:56:25;102246.00;;;0.83;77.30
58991;BME280;44781;53.444;14.476;2023-03-03T00:58:54;102245.27;;;0.86;77.28
58991;BME280;44781;53.444;14.476;2023-03-03T01:01:21;102245.45;;;0.86;77.26
58991;BME280;44781;53.444;14.476;2023-03-03T01:03:52;102247.55;;;0.86;77.27
58991;BME280;44781;53.444;14.476;2023-03-03T01:06:19;102243.58;;;0.82;77.15
58991;BME280;44781;53.444;14.476;2023-03-03T01:08:46;102241.16;;;0.81;77.25
58991;BME280;44781;53.444;14.476;2023-03-03T01:11:20;102239.77;;;0.81;77.26
58991;BME280;44781;53.444;14.476;2023-03-03T01:13:51;102241.46;;;0.84;77.47
58991;BME280;44781;53.444;14.476;2023-03-03T01:16:19;102236.59;;;0.86;77.50
58991;BME280;44781;53.444;14.476;2023-03-03T01:18:46;102228.55;;;0.87;77.57
58991;BME280;44781;53.444;14.476;2023-03-03T01:21:13;102232.54;;;0.89;77.58
58991;BME280;44781;53.444;14.476;2023-03-03T01:23:41;102225.38;;;0.91;77.66
58991;BME280;44781;53.444;14.476;2023-03-03T01:26:09;102226.59;;;0.91;77.74
58991;BME280;44781;53.444;14.476;2023-03-03T01:28:36;102232.34;;;0.92;77.66
58991;BME280;44781;53.444;14.476;2023-03-03T01:31:04;102231.47;;;0.91;77.65
58991;BME280;44781;53.444;14.476;2023-03-03T01:33:33;102229.23;;;0.90;77.57
58991;BME280;44781;53.444;14.476;2023-03-03T01:36:02;102226.27;;;0.90;77.74
58991;BME280;44781;53.444;14.476;2023-03-03T01:38:30;102209.71;;;0.91;77.83
58991;BME280;44781;53.444;14.476;2023-03-03T01:40:58;102211.42;;;0.93;77.95
58991;BME280;44781;53.444;14.476;2023-03-03T01:43:30;102209.69;;;0.94;77.98
58991;BME280;44781;53.444;14.476;2023-03-03T01:48:32;102210.91;;;0.93;77.93
58991;BME280;44781;53.444;14.476;2023-03-03T01:51:08;102211.80;;;0.91;77.96
58991;BME280;44781;53.444;14.476;2023-03-03T01:53:43;102210.59;;;0.92;77.93
58991;BME280;44781;53.444;14.476;2023-03-03T01:56:13;102213.19;;;0.92;77.92
58991;BME280;44781;53.444;14.476;2023-03-03T01:58:47;102206.91;;;0.93;78.04
58991;BME280;44781;53.444;14.476;2023-03-03T02:01:25;102209.53;;;0.91;78.17
58991;BME280;44781;53.444;14.476;2023-03-03T02:03:54;102222.23;;;0.92;78.16
58991;BME280;44781;53.444;14.476;2023-03-03T02:06:27;102229.73;;;0.91;78.14
58991;BME280;44781;53.444;14.476;2023-03-03T02:12:02;102242.61;;;0.90;78.20
58991;BME280;44781;53.444;14.476;2023-03-03T02:14:34;102242.65;;;0.87;78.04
58991;BME280;44781;53.444;14.476;2023-03-03T02:17:02;102235.40;;;0.82;78.07
58991;BME280;44781;53.444;14.476;2023-03-03T02:22:00;102229.51;;;0.80;78.17
58991;BME280;44781;53.444;14.476;2023-03-03T02:24:35;102229.14;;;0.83;78.49
58991;BME280;44781;53.444;14.476;2023-03-03T02:27:04;102231.20;;;0.84;78.52
58991;BME280;44781;53.444;14.476;2023-03-03T02:29:32;102222.65;;;0.85;78.57
58991;BME280;44781;53.444;14.476;2023-03-03T02:31:59;102221.11;;;0.84;78.55
58991;BME280;44781;53.444;14.476;2023-03-03T02:34:26;102214.18;;;0.82;78.42
58991;BME280;44781;53.444;14.476;2023-03-03T02:36:54;102211.24;;;0.79;78.41
58991;BME280;44781;53.444;14.476;2023-03-03T02:39:23;102209.86;;;0.80;78.59
58991;BME280;44781;53.444;14.476;2023-03-03T02:44:42;102215.42;;;0.79;78.61
58991;BME280;44781;53.444;14.476;2023-03-03T02:47:12;102209.67;;;0.81;78.81
58991;BME280;44781;53.444;14.476;2023-03-03T02:49:40;102201.32;;;0.81;78.84
58991;BME280;44781;53.444;14.476;2023-03-03T02:52:09;102198.91;;;0.78;78.73
58991;BME280;44781;53.444;14.476;2023-03-03T02:54:38;102201.23;;;0.74;78.63
58991;BME280;44781;53.444;14.476;2023-03-03T02:57:06;102203.70;;;0.71;78.91
58991;BME280;44781;53.444;14.476;2023-03-03T02:59:34;102199.34;;;0.71;78.92
58991;BME280;44781;53.444;14.476;2023-03-03T03:02:08;102196.04;;;0.71;78.92
58991;BME280;44781;53.444;14.476;2023-03-03T03:04:36;102195.52;;;0.72;78.95
58991;BME280;44781;53.444;14.476;2023-03-03T03:07:04;102196.19;;;0.74;79.16
58991;BME280;44781;53.444;14.476;2023-03-03T03:09:32;102197.56;;;0.76;79.20
58991;BME280;44781;53.444;14.476;2023-03-03T03:12:00;102200.33;;;0.76;79.27
58991;BME280;44781;53.444;14.476;2023-03-03T03:14:28;102197.55;;;0.76;79.09
58991;BME280;44781;53.444;14.476;2023-03-03T03:16:56;102199.14;;;0.73;79.08
58991;BME280;44781;53.444;14.476;2023-03-03T03:19:23;102198.48;;;0.71;79.23
58991;BME280;44781;53.444;14.476;2023-03-03T03:21:51;102189.77;;;0.71;79.31
58991;BME280;44781;53.444;14.476;2023-03-03T03:24:19;102183.85;;;0.72;79.32
58991;BME280;44781;53.444;14.476;2023-03-03T03:26:51;102180.00;;;0.74;79.49
58991;BME280;44781;53.444;14.476;2023-03-03T03:29:19;102181.17;;;0.78;79.67
58991;BME280;44781;53.444;14.476;2023-03-03T03:31:47;102186.33;;;0.83;79.70
58991;BME280;44781;53.444;14.476;2023-03-03T03:34:14;102187.53;;;0.85;79.83
58991;BME280;44781;53.444;14.476;2023-03-03T03:36:41;102180.89;;;0.87;79.86
58991;BME280;44781;53.444;14.476;2023-03-03T03:39:10;102170.11;;;0.87;79.64
58991;BME280;44781;53.444;14.476;2023-03-03T03:41:40;102171.16;;;0.85;79.50
58991;BME280;44781;53.444;14.476;2023-03-03T03:44:08;102165.08;;;0.85;79.64
58991;BME280;44781;53.444;14.476;2023-03-03T03:46:36;102161.09;;;0.83;79.67
58991;BME280;44781;53.444;14.476;2023-03-03T03:49:04;102170.56;;;0.90;79.64
58991;BME280;44781;53.444;14.476;2023-03-03T03:51:31;102167.27;;;0.91;79.80
58991;BME280;44781;53.444;14.476;2023-03-03T03:54:02;102166.55;;;0.91;79.71
58991;BME280;44781;53.444;14.476;2023-03-03T03:56:30;102169.19;;;0.90;79.63
58991;BME280;44781;53.444;14.476;2023-03-03T03:59:00;102169.22;;;0.88;79.54
58991;BME280;44781;53.444;14.476;2023-03-03T04:01:27;102168.91;;;0.84;79.67
58991;BME280;44781;53.444;14.476;2023-03-03T04:03:55;102173.52;;;0.77;79.48
58991;BME280;44781;53.444;14.476;2023-03-03T04:06:26;102168.53;;;0.73;79.58
58991;BME280;44781;53.444;14.476;2023-03-03T04:08:54;102166.48;;;0.71;79.68
58991;BME280;44781;53.444;14.476;2023-03-03T04:11:23;102153.95;;;0.71;79.91
58991;BME280;44781;53.444;14.476;2023-03-03T04:13:55;102146.09;;;0.73;80.19
58991;BME280;44781;53.444;14.476;2023-03-03T04:16:25;102146.05;;;0.76;80.26
58991;BME280;44781;53.444;14.476;2023-03-03T04:18:55;102149.14;;;0.79;80.24
58991;BME280;44781;53.444;14.476;2023-03-03T04:21:23;102142.88;;;0.79;80.25
58991;BME280;44781;53.444;14.476;2023-03-03T04:23:51;102144.13;;;0.77;80.25
58991;BME280;44781;53.444;14.476;2023-03-03T04:26:20;102146.90;;;0.78;80.03
58991;BME280;44781;53.444;14.476;2023-03-03T04:28:47;102150.69;;;0.82;80.33
58991;BME280;44781;53.444;14.476;2023-03-03T04:31:14;102143.42;;;0.79;80.35
58991;BME280;44781;53.444;14.476;2023-03-03T04:33:42;102151.96;;;0.89;80.40
58991;BME280;44781;53.444;14.476;2023-03-03T04:36:10;102154.70;;;0.93;80.56
58991;BME280;44781;53.444;14.476;2023-03-03T04:38:37;102155.73;;;0.94;80.42
58991;BME280;44781;53.444;14.476;2023-03-03T04:41:06;102154.67;;;0.96;80.47
58991;BME280;44781;53.444;14.476;2023-03-03T04:43:36;102153.10;;;0.95;80.42
58991;BME280;44781;53.444;14.476;2023-03-03T04:46:04;102151.07;;;0.92;80.35
58991;BME280;44781;53.444;14.476;2023-03-03T04:48:33;102155.30;;;0.88;80.30
58991;BME280;44781;53.444;14.476;2023-03-03T04:51:00;102152.41;;;0.82;80.30
58991;BME280;44781;53.444;14.476;2023-03-03T04:53:28;102156.78;;;0.81;80.38
58991;BME280;44781;53.444;14.476;2023-03-03T04:55:55;102156.25;;;0.82;80.55
58991;BME280;44781;53.444;14.476;2023-03-03T04:58:23;102158.13;;;0.84;80.63
58991;BME280;44781;53.444;14.476;2023-03-03T05:00:55;102158.92;;;0.89;80.92
58991;BME280;44781;53.444;14.476;2023-03-03T05:03:25;102158.88;;;0.93;80.93
58991;BME280;44781;53.444;14.476;2023-03-03T05:05:53;102157.98;;;0.94;80.90
58991;BME280;44781;53.444;14.476;2023-03-03T05:08:21;102159.56;;;0.94;80.76
58991;BME280;44781;53.444;14.476;2023-03-03T05:10:53;102154.38;;;0.91;80.68
58991;BME280;44781;53.444;14.476;2023-03-03T05:13:20;102156.85;;;0.90;80.73
58991;BME280;44781;53.444;14.476;2023-03-03T05:15:51;102154.39;;;0.91;80.79
58991;BME280;44781;53.444;14.476;2023-03-03T05:18:19;102156.66;;;0.90;80.80
58991;BME280;44781;53.444;14.476;2023-03-03T05:20:47;102155.43;;;0.90;80.65
58991;BME280;44781;53.444;14.476;2023-03-03T05:23:15;102162.57;;;0.91;80.88
58991;BME280;44781;53.444;14.476;2023-03-03T05:25:42;102162.40;;;0.90;81.02
58991;BME280;44781;53.444;14.476;2023-03-03T05:28:10;102163.12;;;0.89;81.02
58991;BME280;44781;53.444;14.476;2023-03-03T05:30:37;102164.71;;;0.87;81.14
58991;BME280;44781;53.444;14.476;2023-03-03T05:33:05;102165.41;;;0.87;81.13
58991;BME280;44781;53.444;14.476;2023-03-03T05:35:33;102168.18;;;0.87;81.12
58991;BME280;44781;53.444;14.476;2023-03-03T05:38:00;102167.67;;;0.87;81.26
58991;BME280;44781;53.444;14.476;2023-03-03T05:40:29;102167.46;;;0.89;81.42
58991;BME280;44781;53.444;14.476;2023-03-03T05:42:58;102165.52;;;0.91;81.46
58991;BME280;44781;53.444;14.476;2023-03-03T05:45:26;102164.11;;;0.93;81.58
58991;BME280;44781;53.444;14.476;2023-03-03T05:47:53;102169.14;;;0.95;81.48
58991;BME280;44781;53.444;14.476;2023-03-03T05:50:22;102172.95;;;0.95;81.40
58991;BME280;44781;53.444;14.476;2023-03-03T05:52:50;102179.55;;;0.96;81.30
58991;BME280;44781;53.444;14.476;2023-03-03T05:55:19;102178.70;;;0.95;81.29
58991;BME280;44781;53.444;14.476;2023-03-03T05:57:46;102187.34;;;1.00;81.21
58991;BME280;44781;53.444;14.476;2023-03-03T06:00:14;102191.52;;;1.00;81.15
58991;BME280;44781;53.444;14.476;2023-03-03T06:02:42;102191.04;;;0.96;81.01
58991;BME280;44781;53.444;14.476;2023-03-03T06:05:09;102186.70;;;0.94;81.25
58991;BME280;44781;53.444;14.476;2023-03-03T06:07:38;102182.55;;;0.93;81.27
58991;BME280;44781;53.444;14.476;2023-03-03T06:10:05;102180.83;;;0.91;81.25
58991;BME280;44781;53.444;14.476;2023-03-03T06:12:36;102179.48;;;0.89;81.05
58991;BME280;44781;53.444;14.476;2023-03-03T06:15:05;102179.88;;;0.84;80.77
58991;BME280;44781;53.444;14.476;2023-03-03T06:17:33;102177.30;;;0.81;81.03
58991;BME280;44781;53.444;14.476;2023-03-03T06:20:00;102175.43;;;0.78;81.12
58991;BME280;44781;53.444;14.476;2023-03-03T06:22:28;102172.34;;;0.74;81.08
58991;BME280;44781;53.444;14.476;2023-03-03T06:24:55;102174.79;;;0.73;81.29
58991;BME280;44781;53.444;14.476;2023-03-03T06:27:23;102183.14;;;0.73;81.40
58991;BME280;44781;53.444;14.476;2023-03-03T06:29:50;102185.92;;;0.72;81.40
58991;BME280;44781;53.444;14.476;2023-03-03T06:32:17;102187.54;;;0.70;81.30
58991;BME280;44781;53.444;14.476;2023-03-03T06:34:44;102191.41;;;0.67;81.36
58991;BME280;44781;53.444;14.476;2023-03-03T06:37:12;102190.52;;;0.68;81.41
58991;BME280;44781;53.444;14.476;2023-03-03T06:39:39;102186.64;;;0.72;81.59
58991;BME280;44781;53.444;14.476;2023-03-03T06:42:06;102185.55;;;0.76;81.69
58991;BME280;44781;53.444;14.476;2023-03-03T06:44:35;102184.61;;;0.82;81.84
58991;BME280;44781;53.444;14.476;2023-03-03T06:47:03;102184.05;;;0.84;81.72
58991;BME280;44781;53.444;14.476;2023-03-03T06:49:30;102180.21;;;0.85;81.61
58991;BME280;44781;53.444;14.476;2023-03-03T06:52:00;102184.61;;;0.81;81.47
58991;BME280;44781;53.444;14.476;2023-03-03T06:54:31;102190.60;;;0.75;81.35
58991;BME280;44781;53.444;14.476;2023-03-03T06:59:57;102197.26;;;0.71;81.53
58991;BME280;44781;53.444;14.476;2023-03-03T07:02:26;102193.39;;;0.75;81.81
58991;BME280;44781;53.444;14.476;2023-03-03T07:04:54;102193.34;;;0.78;81.84
58991;BME280;44781;53.444;14.476;2023-03-03T07:07:24;102195.92;;;0.81;81.87
58991;BME280;44781;53.444;14.476;2023-03-03T07:09:55;102194.31;;;0.85;81.81
58991;BME280;44781;53.444;14.476;2023-03-03T07:12:25;102191.50;;;0.88;81.83
58991;BME280;44781;53.444;14.476;2023-03-03T07:17:48;102194.96;;;0.89;81.89
58991;BME280;44781;53.444;14.476;2023-03-03T07:20:22;102197.57;;;0.89;81.92
58991;BME280;44781;53.444;14.476;2023-03-03T07:22:50;102201.77;;;0.87;81.71
58991;BME280;44781;53.444;14.476;2023-03-03T07:27:59;102205.45;;;0.86;81.44
58991;BME280;44781;53.444;14.476;2023-03-03T07:30:30;102207.52;;;0.87;81.62
58991;BME280;44781;53.444;14.476;2023-03-03T07:32:58;102208.73;;;0.87;81.58
58991;BME280;44781;53.444;14.476;2023-03-03T07:35:38;102209.45;;;0.85;81.51
58991;BME280;44781;53.444;14.476;2023-03-03T07:38:37;102216.45;;;0.81;81.55
58991;BME280;44781;53.444;14.476;2023-03-03T07:41:15;102216.35;;;0.74;81.58
58991;BME280;44781;53.444;14.476;2023-03-03T07:48:51;102223.20;;;0.69;81.75
58991;BME280;44781;53.444;14.476;2023-03-03T07:51:23;102228.54;;;0.74;81.88
58991;BME280;44781;53.444;14.476;2023-03-03T07:54:28;102225.32;;;0.81;82.03
58991;BME280;44781;53.444;14.476;2023-03-03T07:57:25;102230.44;;;0.89;82.29
58991;BME280;44781;53.444;14.476;2023-03-03T08:02:39;102226.45;;;1.02;82.30
58991;BME280;44781;53.444;14.476;2023-03-03T08:05:49;102220.16;;;1.04;82.54
58991;BME280;44781;53.444;14.476;2023-03-03T08:08:33;102224.25;;;1.11;82.34
58991;BME280;44781;53.444;14.476;2023-03-03T08:11:03;102226.98;;;1.15;82.00
58991;BME280;44781;53.444;14.476;2023-03-03T08:18:39;102214.36;;;1.22;81.64
58991;BME280;44781;53.444;14.476;2023-03-03T08:21:24;102213.10;;;1.25;81.83
58991;BME280;44781;53.444;14.476;2023-03-03T08:23:52;102211.83;;;1.28;81.89
58991;BME280;44781;53.444;14.476;2023-03-03T08:26:21;102204.69;;;1.28;81.73
58991;BME280;44781;53.444;14.476;2023-03-03T08:28:49;102203.00;;;1.26;81.60
58991;BME280;44781;53.444;14.476;2023-03-03T08:31:16;102200.42;;;1.23;81.33
58991;BME280;44781;53.444;14.476;2023-03-03T08:33:44;102202.85;;;1.23;81.35
58991;BME280;44781;53.444;14.476;2023-03-03T08:36:12;102201.39;;;1.28;81.75
58991;BME280;44781;53.444;14.476;2023-03-03T08:38:40;102198.03;;;1.32;81.80
58991;BME280;44781;53.444;14.476;2023-03-03T08:41:08;102200.94;;;1.35;81.75
58991;BME280;44781;53.444;14.476;2023-03-03T08:43:35;102201.20;;;1.41;81.97
58991;BME280;44781;53.444;14.476;2023-03-03T08:46:03;102203.60;;;1.44;81.95
58991;BME280;44781;53.444;14.476;2023-03-03T08:48:32;102199.75;;;1.45;81.87
58991;BME280;44781;53.444;14.476;2023-03-03T08:51:00;102196.59;;;1.47;81.84
58991;BME280;44781;53.444;14.476;2023-03-03T08:53:28;102204.73;;;1.49;81.69
58991;BME280;44781;53.444;14.476;2023-03-03T08:55:56;102205.98;;;1.47;81.37
58991;BME280;44781;53.444;14.476;2023-03-03T08:58:23;102207.60;;;1.44;81.19
58991;BME280;44781;53.444;14.476;2023-03-03T09:00:53;102209.17;;;1.43;81.37
58991;BME280;44781;53.444;14.476;2023-03-03T09:03:20;102209.16;;;1.45;81.45
58991;BME280;44781;53.444;14.476;2023-03-03T09:05:48;102213.14;;;1.46;81.43
58991;BME280;44781;53.444;14.476;2023-03-03T09:08:15;102211.63;;;1.42;81.29
58991;BME280;44781;53.444;14.476;2023-03-03T09:10:43;102213.77;;;1.38;81.39
58991;BME280;44781;53.444;14.476;2023-03-03T09:13:14;102212.23;;;1.37;81.43
58991;BME280;44781;53.444;14.476;2023-03-03T09:15:42;102210.30;;;1.37;81.58
58991;BME280;44781;53.444;14.476;2023-03-03T09:18:14;102214.28;;;1.40;81.77
58991;BME280;44781;53.444;14.476;2023-03-03T09:20:48;102212.29;;;1.45;81.88
58991;BME280;44781;53.444;14.476;2023-03-03T09:26:29;102212.98;;;1.55;81.91
58991;BME280;44781;53.444;14.476;2023-03-03T09:29:16;102215.90;;;1.60;81.85
58991;BME280;44781;53.444;14.476;2023-03-03T09:31:50;102215.68;;;1.63;81.78
58991;BME280;44781;53.444;14.476;2023-03-03T09:36:57;102218.38;;;1.69;81.80
58991;BME280;44781;53.444;14.476;2023-03-03T09:39:29;102219.38;;;1.71;81.73
58991;BME280;44781;53.444;14.476;2023-03-03T09:42:31;102220.88;;;1.75;81.63
58991;BME280;44781;53.444;14.476;2023-03-03T09:45:12;102220.96;;;1.81;81.57
58991;BME280;44781;53.444;14.476;2023-03-03T09:50:52;102217.88;;;1.88;81.54
58991;BME280;44781;53.444;14.476;2023-03-03T09:53:54;102215.57;;;1.91;81.54
58991;BME280;44781;53.444;14.476;2023-03-03T09:56:50;102214.73;;;1.90;81.32
58991;BME280;44781;53.444;14.476;2023-03-03T09:59:42;102215.98;;;1.88;81.07
58991;BME280;44781;53.444;14.476;2023-03-03T10:02:32;102215.83;;;1.86;81.15
58991;BME280;44781;53.444;14.476;2023-03-03T10:10:24;102220.88;;;1.97;81.47
58991;BME280;44781;53.444;14.476;2023-03-03T10:19:01;102216.59;;;2.13;81.46
58991;BME280;44781;53.444;14.476;2023-03-03T10:24:32;102219.77;;;2.21;81.53
58991;BME280;44781;53.444;14.476;2023-03-03T10:27:18;102212.43;;;2.22;81.33
58991;BME280;44781;53.444;14.476;2023-03-03T10:33:08;102207.36;;;2.32;81.41
58991;BME280;44781;53.444;14.476;2023-03-03T10:44:32;102205.63;;;2.50;81.08
58991;BME280;44781;53.444;14.476;2023-03-03T10:47:24;102198.02;;;2.46;80.93
58991;BME280;44781;53.444;14.476;2023-03-03T10:52:50;102203.36;;;2.50;80.87
58991;BME280;44781;53.444;14.476;2023-03-03T11:03:55;102183.76;;;2.70;81.11
58991;BME280;44781;53.444;14.476;2023-03-03T11:06:39;102179.83;;;2.75;80.86
58991;BME280;44781;53.444;14.476;2023-03-03T11:09:23;102180.15;;;2.76;80.72
58991;BME280;44781;53.444;14.476;2023-03-03T11:12:03;102186.86;;;2.81;80.72
58991;BME280;44781;53.444;14.476;2023-03-03T11:15:02;102183.29;;;2.85;80.71
58991;BME280;44781;53.444;14.476;2023-03-03T11:17:42;102178.69;;;2.88;80.82
58991;BME280;44781;53.444;14.476;2023-03-03T11:20:35;102174.84;;;2.88;80.53
58991;BME280;44781;53.444;14.476;2023-03-03T11:29:10;102169.59;;;3.05;80.73
58991;BME280;44781;53.444;14.476;2023-03-03T11:31:46;102176.56;;;3.13;80.72
58991;BME280;44781;53.444;14.476;2023-03-03T11:37:11;102178.98;;;3.22;80.25
58991;BME280;44781;53.444;14.476;2023-03-03T11:39:44;102169.61;;;3.27;80.39
58991;BME280;44781;53.444;14.476;2023-03-03T11:45:03;102161.70;;;3.44;80.63
58991;BME280;44781;53.444;14.476;2023-03-03T11:47:53;102159.48;;;3.57;80.70
58991;BME280;44781;53.444;14.476;2023-03-03T11:50:54;102153.58;;;3.69;80.17
58991;BME280;44781;53.444;14.476;2023-03-03T11:53:45;102151.08;;;3.79;79.85
58991;BME280;44781;53.444;14.476;2023-03-03T11:59:24;102136.11;;;3.96;79.68
58991;BME280;44781;53.444;14.476;2023-03-03T12:04:58;102132.77;;;4.16;79.15
58991;BME280;44781;53.444;14.476;2023-03-03T12:07:39;102124.91;;;4.22;79.07
58991;BME280;44781;53.444;14.476;2023-03-03T12:10:29;102116.45;;;4.31;79.09
58991;BME280;44781;53.444;14.476;2023-03-03T12:13:16;102107.93;;;4.41;78.93
58991;BME280;44781;53.444;14.476;2023-03-03T12:16:06;102109.08;;;4.50;78.58
58991;BME280;44781;53.444;14.476;2023-03-03T12:33:07;102099.14;;;5.01;77.24
58991;BME280;44781;53.444;14.476;2023-03-03T12:35:42;102099.39;;;5.09;76.85
58991;BME280;44781;53.444;14.476;2023-03-03T12:38:34;102094.66;;;5.15;76.49
58991;BME280;44781;53.444;14.476;2023-03-03T12:47:05;102092.44;;;5.19;75.49
58991;BME280;44781;53.444;14.476;2023-03-03T13:03:54;102072.45;;;5.35;74.30
58991;BME280;44781;53.444;14.476;2023-03-03T13:06:29;102070.91;;;5.34;74.34
58991;BME280;44781;53.444;14.476;2023-03-03T13:09:11;102071.80;;;5.34;74.16
58991;BME280;44781;53.444;14.476;2023-03-03T13:17:26;102064.38;;;5.25;73.59
58991;BME280;44781;53.444;14.476;2023-03-03T13:22:49;102055.84;;;5.24;73.48
58991;BME280;44781;53.444;14.476;2023-03-03T13:28:51;102053.93;;;5.28;73.31
58991;BME280;44781;53.444;14.476;2023-03-03T13:31:19;102056.75;;;5.28;73.34
58991;BME280;44781;53.444;14.476;2023-03-03T13:33:54;102052.67;;;5.29;73.50
58991;BME280;44781;53.444;14.476;2023-03-03T13:36:33;102047.56;;;5.30;73.49
58991;BME280;44781;53.444;14.476;2023-03-03T13:39:13;102043.89;;;5.30;73.34
58991;BME280;44781;53.444;14.476;2023-03-03T13:41:50;102044.54;;;5.26;73.19
58991;BME280;44781;53.444;14.476;2023-03-03T13:44:41;102036.09;;;5.22;73.09
58991;BME280;44781;53.444;14.476;2023-03-03T13:52:37;102021.91;;;5.27;73.21
58991;BME280;44781;53.444;14.476;2023-03-03T13:55:21;102014.88;;;5.33;73.17
58991;BME280;44781;53.444;14.476;2023-03-03T13:58:01;102012.27;;;5.38;73.16
58991;BME280;44781;53.444;14.476;2023-03-03T14:05:55;102002.17;;;5.45;72.80
58991;BME280;44781;53.444;14.476;2023-03-03T14:08:48;102003.32;;;5.48;72.73
58991;BME280;44781;53.444;14.476;2023-03-03T14:11:53;102002.58;;;5.49;72.55
58991;BME280;44781;53.444;14.476;2023-03-03T14:14:52;101996.10;;;5.49;72.36
58991;BME280;44781;53.444;14.476;2023-03-03T14:17:30;101999.04;;;5.50;72.24
58991;BME280;44781;53.444;14.476;2023-03-03T14:20:28;101998.33;;;5.46;71.78
58991;BME280;44781;53.444;14.476;2023-03-03T14:26:11;101992.36;;;5.40;71.75
58991;BME280;44781;53.444;14.476;2023-03-03T14:28:46;101993.18;;;5.42;71.76
58991;BME280;44781;53.444;14.476;2023-03-03T14:31:22;101988.11;;;5.42;71.65
58991;BME280;44781;53.444;14.476;2023-03-03T14:36:42;101986.52;;;5.42;71.53
58991;BME280;44781;53.444;14.476;2023-03-03T14:39:49;101985.88;;;5.41;71.60
58991;BME280;44781;53.444;14.476;2023-03-03T14:42:37;101979.02;;;5.36;71.56
58991;BME280;44781;53.444;14.476;2023-03-03T14:45:37;101977.75;;;5.32;71.55
58991;BME280;44781;53.444;14.476;2023-03-03T14:48:27;101974.95;;;5.27;71.66
58991;BME280;44781;53.444;14.476;2023-03-03T14:50:57;101974.50;;;5.20;71.79
58991;BME280;44781;53.444;14.476;2023-03-03T14:53:36;101970.98;;;5.15;71.84
58991;BME280;44781;53.444;14.476;2023-03-03T14:56:29;101974.48;;;5.15;71.75
58991;BME280;44781;53.444;14.476;2023-03-03T14:59:29;101974.13;;;5.15;71.72
58991;BME280;44781;53.444;14.476;2023-03-03T15:04:40;101966.48;;;5.19;71.89
58991;BME280;44781;53.444;14.476;2023-03-03T15:07:35;101960.75;;;5.22;71.85
58991;BME280;44781;53.444;14.476;2023-03-03T15:10:04;101960.20;;;5.23;71.76
58991;BME280;44781;53.444;14.476;2023-03-03T15:12:39;101953.11;;;5.20;71.65
58991;BME280;44781;53.444;14.476;2023-03-03T15:15:18;101951.30;;;5.17;71.20
58991;BME280;44781;53.444;14.476;2023-03-03T15:29:01;101945.73;;;4.90;71.18
58991;BME280;44781;53.444;14.476;2023-03-03T15:32:01;101952.55;;;4.85;70.94
58991;BME280;44781;53.444;14.476;2023-03-03T15:34:43;101951.66;;;4.80;70.99
58991;BME280;44781;53.444;14.476;2023-03-03T15:54:21;101927.05;;;4.72;71.82
58991;BME280;44781;53.444;14.476;2023-03-03T16:02:45;101920.14;;;4.69;71.91
58991;BME280;44781;53.444;14.476;2023-03-03T16:05:27;101923.85;;;4.68;71.91
58991;BME280;44781;53.444;14.476;2023-03-03T16:14:06;101915.27;;;4.79;72.23
58991;BME280;44781;53.444;14.476;2023-03-03T16:16:53;101911.64;;;4.83;72.25
58991;BME280;44781;53.444;14.476;2023-03-03T16:19:49;101912.21;;;4.87;72.30
58991;BME280;44781;53.444;14.476;2023-03-03T16:22:40;101907.65;;;4.87;72.25
58991;BME280;44781;53.444;14.476;2023-03-03T16:28:08;101911.46;;;4.83;72.14
58991;BME280;44781;53.444;14.476;2023-03-03T16:30:51;101906.66;;;4.81;72.13
58991;BME280;44781;53.444;14.476;2023-03-03T16:33:36;101901.48;;;4.78;72.17
58991;BME280;44781;53.444;14.476;2023-03-03T16:41:13;101911.36;;;4.70;72.26
58991;BME280;44781;53.444;14.476;2023-03-03T16:46:45;101904.91;;;4.70;72.18
58991;BME280;44781;53.444;14.476;2023-03-03T16:49:30;101907.56;;;4.69;72.24
58991;BME280;44781;53.444;14.476;2023-03-03T16:52:11;101905.45;;;4.69;72.24
58991;BME280;44781;53.444;14.476;2023-03-03T16:54:56;101901.11;;;4.68;72.11
58991;BME280;44781;53.444;14.476;2023-03-03T16:57:55;101899.48;;;4.64;72.02
58991;BME280;44781;53.444;14.476;2023-03-03T17:00:33;101898.35;;;4.62;72.15
58991;BME280;44781;53.444;14.476;2023-03-03T17:03:33;101902.73;;;4.62;72.22
58991;BME280;44781;53.444;14.476;2023-03-03T17:06:17;101901.52;;;4.61;72.30